SBFL METAR and TAF | Updated Today

SBFL METAR

Hercílio Luz International Airport

Observation time: 4 min. ago

SBFL 292000Z 13008KT 9999 SCT033 BKN100 19/10 Q1023

Need help? Read our tutorial on how to read METARs or read the parsed version below.

Hercílio Luz International Airport (SBFL) METAR

  • Weather conditions on Thu, 29 Sep 2022 20:00:00 +0000 (4 min. ago):
  • Present conditions: Dry
  • Clouds: Scattered at 1006 meters; broken sky at 3048 meters
  • Visibility: Greater than 10 km
  • Wind: 130 degrees at 8 knots
  • Temperature: 19 celsius
  • Dew point: 10 celsius
  • Pressure: 1023 millibars
  • Remarks: None


Useful to know...

SBFL TAF

Hercílio Luz International Airport

TAF SBFL 291500Z 2918/3018 14008KT 8000 SCT030 BKN045 TX22/2918Z TN15/3008Z BECMG 3015/3017 02008KT 5000 -RA RMK PFO
Observation time: 5:04 hr. ago
Need help? Read our tutorial on how to read TAFs or read the parsed version below.

Parsed version of TAF for Hercílio Luz International Airport (SBFL)

  • From 29 September at 18:00 UTC, to day 30 of the month at 18:00 UTC
  • Clouds: Scattered at 914 meters; broken sky at 1372 meters
  • Visibility: 8000 meters
  • Wind: 140 degrees at 8
  • Expected to arise soon, from 30 September at 15:00 UTC, to day 30 of the month at 17:00 UTC
  • Visibility: 5000 meters
  • Wind: 20 degrees at 8
  • Other: Light rain

Airports near SBFL

No airports found within 100nm radius.